• Join FlightAware (Why Join?)
  • Login
  • US Flag 
12:00AM EST


 

Airport Tracker/Info


-or-


 

Live Flight TrackerFlight Track Log ✈ UAL252 ✈ 15-Jun-2013 ✈ KIAH - KLAX

Flight Track Log - Related Links

Times and Time Zones

All times are in EDT time to prevent confusion due to time zone crossing. See the UAL252 flight status page for this flight to view local times or setup timezone preferences in your user account.

Time Position Orientation Groundspeed Altitude Reporting Facility
EDT Latitude Longitude Course Direction KTS MPH feet Rate Location/Type
01:04PM 29.9553 -95.3419 276° West 179 206 900  Level Houston Center
01:05PM 29.9361 -95.3611 221° Southwest 200 230 1,800 2,160 Climbing Houston Center
01:06PM 29.9531 -95.4314 286° West 234 269 4,300 2,460 Climbing Houston Center
01:07PM 29.9756 -95.5181 287° West 280 322 6,900 2,520 Climbing Houston Center
01:08PM 30.0363 -95.8355 276° West  Level FlightAware Approximate
01:08PM 30.0006 -95.6092 288° West 302 348 9,500  Level Houston Center
01:09PM 30.0468 -95.9617 276° West  Level FlightAware Approximate
01:09PM 30.0153 -95.7078 280° West 317 365 10,700  Level Houston Center
01:10PM 30.0702 -96.0888 276° West  Level FlightAware Approximate
01:10PM 30.0350 -95.8328 280° West 379 436 12,500  Level Houston Center
01:11PM 30.0567 -95.9636 281° West 408 470 14,600 2,040 Climbing Houston Center
01:12PM 30.0758 -96.0964 280° West 422 486 16,800 2,040 Climbing Houston Center
01:13PM 30.0969 -96.2286 280° West 423 487 18,900 1,800 Climbing Houston Center
01:14PM 30.1231 -96.3961 280° West 442 509 20,600 1,500 Climbing Houston Center
01:15PM 30.1422 -96.5242 280° West 452 520 22,000 1,500 Climbing Houston Center
01:16PM 30.1675 -96.6983 280° West 465 535 23,700 1,440 Climbing Houston Center
01:17PM 30.1956 -96.8469 282° West 468 539 25,000 1,200 Climbing Houston Center
01:18PM 30.2286 -96.9992 284° West 479 551 26,300 1,200 Climbing Houston Center
01:19PM 30.2636 -97.1514 285° West 481 554 27,500 1,140 Climbing Houston Center
01:20PM 30.2983 -97.3042 285° West 483 556 28,700 1,260 Climbing Houston Center
01:21PM 30.3317 -97.4558 284° West 481 554 30,200 1,500 Climbing Houston Center
01:22PM 30.3986 -97.5894 300° West 471 542 31,800 1,500 Climbing Houston Center
01:23PM 30.4672 -97.7175 302° West 462 532 33,300 1,260 Climbing Houston Center
01:24PM 30.4989 -97.8586 285° West 448 516 34,500 1,200 Climbing Houston Center
01:25PM 30.5294 -98.0003 284° West 447 514 35,800 720 Climbing Houston Center
01:26PM 30.5625 -98.1619 283° West 437 503 36,000 60 Climbing Houston Center
01:27PM 30.5889 -98.2994 283° West 433 498 36,000  Level Houston Center
01:28PM 30.6175 -98.4403 283° West 442 509 36,000  Level Houston Center
01:29PM 30.6464 -98.5822 283° West 447 514 36,000  Level Houston Center
01:30PM 30.6747 -98.7250 283° West 449 517 36,000  Level Houston Center
01:31PM 30.7031 -98.8675 283° West 450 518 36,000  Level Houston Center
01:33PM 30.7325 -99.0100 284° West 449 517 36,000  Level Houston Center
01:34PM 30.7592 -99.1478 283° West 446 513 36,000 -60 Level Houston Center
01:35PM 30.7861 -99.2897 282° West 449 517 35,900  Descending Houston Center
01:36PM 30.8189 -99.4581 283° West 447 514 36,000  Climbing Houston Center
01:37PM 30.8431 -99.5958 282° West 446 513 36,000  Level Houston Center
01:38PM 30.8733 -99.7392 284° West 458 527 36,000  Level Houston Center
01:39PM 30.8981 -99.8744 282° West 444 511 36,000 -60 Level Houston Center
01:40PM 30.9253 -100.0164 283° West 456 525 35,900  Descending Houston Center
01:41PM 30.9567 -100.1844 282° West 452 520 36,000  Climbing Houston Center
01:42PM 30.9839 -100.3231 283° West 450 518 36,000  Level Houston Center
01:43PM 31.0100 -100.4589 283° West 442 509 36,000  Level Houston Center
01:44PM 31.0356 -100.6019 282° West 453 521 36,000  Level Houston Center
01:45PM 31.0614 -100.7403 282° West 447 514 36,000  Level Houston Center
01:46PM 31.0869 -100.8778 282° West 442 509 36,000  Level Houston Center
01:47PM 31.1161 -101.0494 281° West 453 521 36,000  Level Houston Center
01:48PM 31.1439 -101.1847 284° West 436 502 36,000 -60 Level Houston Center
01:49PM 31.1700 -101.3233 282° West 437 503 35,900  Descending Houston Center
01:50PM 31.1964 -101.4789 281° West 444 511 36,000  Climbing Houston Center
01:51PM 31.2225 -101.6208 282° West 447 514 36,000  Level Houston Center
01:52PM 31.2464 -101.7628 281° West 447 514 36,000  Level Houston Center
01:53PM 31.2711 -101.9033 282° West 440 506 36,000  Level Houston Center
01:54PM 31.2953 -102.0422 282° West 432 497 36,000  Level Houston Center
01:55PM 31.3144 -102.1694 280° West 447 514 36,000  Level Albuquerque Center
01:56PM 31.3389 -102.3103 282° West 443 510 36,000  Level Albuquerque Center
01:57PM 31.3672 -102.4822 281° West 446 513 36,000  Level Albuquerque Center
01:58PM 31.3928 -102.6317 281° West 446 513 36,000  Level Albuquerque Center
01:59PM 31.4167 -102.7736 281° West 445 512 36,000  Level Albuquerque Center
02:00PM 31.4406 -102.9156 281° West 447 514 36,000  Level Albuquerque Center
02:01PM 31.4633 -103.0581 281° West 446 513 36,000  Level Albuquerque Center
02:02PM 31.4869 -103.2008 281° West 448 516 36,000  Level Albuquerque Center
02:03PM 31.5092 -103.3444 280° West 449 517 36,000  Level Albuquerque Center
02:04PM 31.5328 -103.4856 281° West 446 513 36,000  Level Albuquerque Center
02:05PM 31.5608 -103.6556 281° West 444 511 36,000  Level Albuquerque Center
02:06PM 31.5817 -103.7925 280° West 443 510 36,000  Level Albuquerque Center
02:07PM 31.6056 -103.9325 281° West 441 507 36,000  Level Albuquerque Center
02:08PM 31.6272 -104.0719 280° West 439 505 36,000 -60 Level Albuquerque Center
02:09PM 31.6494 -104.2117 281° West 439 505 35,900  Descending Albuquerque Center
02:10PM 31.6714 -104.3503 281° West 436 502 36,000  Climbing Albuquerque Center
02:12PM 31.6961 -104.5175 280° West 436 502 36,000  Level Albuquerque Center
02:13PM 31.7169 -104.6544 280° West 433 498 36,000  Level Albuquerque Center
02:14PM 31.7375 -104.7928 280° West 432 497 36,000  Level Albuquerque Center
02:15PM 31.7589 -104.9297 280° West 432 497 36,000  Level Albuquerque Center
02:16PM 31.7797 -105.0681 280° West 432 497 36,000  Level Albuquerque Center
02:17PM 31.8014 -105.2056 281° West 432 497 36,000  Level Albuquerque Center
02:18PM 31.8242 -105.3736 279° West 436 502 36,000  Level Albuquerque Center
02:19PM 31.8442 -105.5103 280° West 429 494 36,000  Level Albuquerque Center
02:20PM 31.8642 -105.6483 280° West 430 495 36,000  Level Albuquerque Center
02:21PM 31.8839 -105.7853 280° West 428 493 36,000  Level Albuquerque Center
02:22PM 31.9056 -105.9433 279° West 430 495 36,000  Level Albuquerque Center
02:23PM 31.9253 -106.0753 280° West 432 497 36,000  Level Albuquerque Center
02:24PM 31.9456 -106.2133 280° West 429 494 36,000  Level Albuquerque Center
02:25PM 31.9725 -106.3525 283° West 437 503 36,000  Level Albuquerque Center
02:26PM 32.0075 -106.4886 287° West 435 501 36,000  Level Albuquerque Center
02:27PM 32.0400 -106.6242 286° West 431 496 36,000  Level Albuquerque Center
02:28PM 32.0800 -106.7861 286° West 429 494 36,000  Level Albuquerque Center
02:29PM 32.1131 -106.9206 286° West 426 490 36,000  Level Albuquerque Center
02:30PM 32.1447 -107.0561 285° West 426 490 36,000  Level Albuquerque Center
02:31PM 32.1758 -107.1828 286° West 425 489 36,000  Level Albuquerque Center
02:32PM 32.2058 -107.3156 285° West 428 493 36,000  Level Albuquerque Center
02:33PM 32.2436 -107.4778 285° West 430 495 36,000  Level Albuquerque Center
02:34PM 32.2725 -107.6000 286° West 423 487 36,000  Level Albuquerque Center
02:35PM 32.3067 -107.7361 287° West 428 493 36,000  Level Albuquerque Center
02:36PM 32.3406 -107.8708 287° West 428 493 36,000  Level Albuquerque Center
02:37PM 32.3750 -108.0078 287° West 431 496 36,000  Level Albuquerque Center
02:38PM 32.4153 -108.1719 286° West 433 498 36,000  Level Albuquerque Center
02:39PM 32.4422 -108.2847 286° West 431 496 36,000  Level Albuquerque Center
02:40PM 32.4819 -108.4486 286° West 432 497 36,000  Level Albuquerque Center
02:41PM 32.5150 -108.5839 286° West 431 496 36,000  Level Albuquerque Center
02:42PM 32.5475 -108.7214 286° West 433 498 36,000  Level Albuquerque Center
02:43PM 32.5792 -108.8578 285° West 431 496 36,000  Level Albuquerque Center
02:44PM 32.6117 -108.9939 286° West 430 495 36,000  Level Albuquerque Center
02:45PM 32.6439 -109.1286 286° West 426 490 36,000  Level Albuquerque Center
02:46PM 32.6753 -109.2642 285° West 425 489 36,000  Level Albuquerque Center
02:47PM 32.7072 -109.3967 286° West 420 483 36,000  Level Albuquerque Center
02:48PM 32.7419 -109.5572 284° West 419 482 36,000  Level Albuquerque Center
02:49PM 32.7753 -109.6872 287° West 415 478 36,000  Level Albuquerque Center
02:51PM 32.8047 -109.8192 285° West 416 479 36,000  Level Albuquerque Center
02:52PM 32.8356 -109.9531 285° West 420 483 36,000  Level Albuquerque Center
02:53PM 32.8675 -110.0872 286° West 422 486 36,000  Level Albuquerque Center
02:54PM 32.8983 -110.2206 285° West 423 487 36,000  Level Albuquerque Center
02:55PM 32.9347 -110.3814 285° West 423 487 36,000  Level Albuquerque Center
02:56PM 32.9633 -110.5156 284° West 422 486 36,000  Level Albuquerque Center
02:57PM 32.9922 -110.6489 285° West 420 483 36,000  Level Albuquerque Center
02:58PM 33.0233 -110.7897 285° West 423 487 36,000  Level Albuquerque Center
02:59PM 33.0542 -110.9239 285° West 422 486 36,000  Level Albuquerque Center
03:00PM 33.0836 -111.0561 285° West 415 478 36,000  Level Albuquerque Center
03:01PM 33.1214 -111.1892 289° West 423 487 36,000  Level Albuquerque Center
03:02PM 33.1606 -111.3225 289° West 424 488 36,000  Level Albuquerque Center
03:03PM 33.1994 -111.4575 289° West 428 493 36,000  Level Albuquerque Center
03:04PM 33.2386 -111.5908 289° West 426 490 36,000  Level Albuquerque Center
03:05PM 33.2853 -111.7511 289° West 426 490 36,000  Level Albuquerque Center
03:06PM 33.3253 -111.8847 290° West 426 490 36,000  Level Albuquerque Center
03:07PM 33.3628 -112.0181 289° West 424 488 36,000  Level Albuquerque Center
03:08PM 33.4019 -112.1525 289° West 424 488 36,000  Level Albuquerque Center
03:09PM 33.4403 -112.2867 289° West 425 489 36,000  Level Albuquerque Center
03:10PM 33.4797 -112.4222 289° West 426 490 36,000  Level Albuquerque Center
03:11PM 33.5175 -112.5569 289° West 424 488 36,000  Level Albuquerque Center
03:12PM 33.5606 -112.7067 289° West 425 489 36,000 -60 Level Albuquerque Center
03:13PM 33.5989 -112.8403 289° West 426 490 35,900  Descending Albuquerque Center
03:14PM 33.6367 -112.9742 289° West 426 490 36,000  Climbing Albuquerque Center
03:15PM 33.6767 -113.1217 288° West 424 488 36,000  Level Albuquerque Center
03:16PM 33.7144 -113.2569 289° West 426 490 36,000  Level Albuquerque Center
03:17PM 33.7508 -113.3906 288° West 424 488 36,000  Level Albuquerque Center
03:18PM 33.7881 -113.5219 289° West 419 482 36,000  Level Albuquerque Center
03:19PM 33.8242 -113.6553 288° West 419 482 36,000  Level Albuquerque Center
03:20PM 33.8600 -113.7889 288° West 420 483 36,000  Level Albuquerque Center
03:21PM 33.8886 -113.9511 282° West 415 478 36,000  Level Albuquerque Center
03:22PM 33.9064 -114.0886 279° West 415 478 36,000  Level Albuquerque Center
03:23PM 33.9244 -114.2242 279° West 413 475 36,000  Level Albuquerque Center
03:24PM 33.9272 -114.2414 281° West 414 476 36,000  Level Los Angeles Center
03:25PM 33.9486 -114.4053 279° West 415 478 36,000  Level Los Angeles Center
03:26PM 33.9689 -114.5711 278° West 418 481 36,000  Level Los Angeles Center
03:27PM 33.9867 -114.7089 279° West 419 482 36,000  Level Los Angeles Center
03:28PM 34.0039 -114.8475 279° West 419 482 36,000  Level Los Angeles Center
03:29PM 34.0222 -114.9864 279° West 420 483 36,000  Level Los Angeles Center
03:30PM 34.0414 -115.1531 278° West 420 483 36,000  Level Los Angeles Center
03:31PM 34.0575 -115.2903 278° West 417 480 36,000  Level Los Angeles Center
03:32PM 34.0731 -115.4281 278° West 418 481 36,000  Level Los Angeles Center
03:33PM 34.0900 -115.5661 278° West 417 480 36,000  Level Los Angeles Center
03:34PM 34.1047 -115.7031 277° West 415 478 36,000  Level Los Angeles Center
03:35PM 34.1031 -115.8411 269° West 415 478 36,000  Level Los Angeles Center
03:36PM 34.0775 -116.0008 259° West 408 470 36,000 -300 Level Los Angeles Center
03:37PM 34.0581 -116.1369 260° West 412 474 35,400 -1,260 Descending Los Angeles Center
03:38PM 34.0372 -116.2725 260° West 413 475 33,400 -2,820 Descending Los Angeles Center
03:39PM 34.0156 -116.4119 259° West 423 487 29,600 -3,300 Descending Los Angeles Center
03:40PM 33.9978 -116.5553 262° West 431 496 26,700 -2,760 Descending Los Angeles Center
03:41PM 33.9886 -116.6939 265° West 419 482 24,000 -2,880 Descending Los Angeles Center
03:43PM 33.9667 -116.9000 263° West 399 459 20,000 -2,820 Descending Southern California TRACON
03:44PM 33.9667 -117.0500 270° West 390 449 17,200 -1,680 Descending Southern California TRACON
03:45PM 33.9500 -117.1667 260° West 353 406 16,500 -900 Descending Southern California TRACON
03:46PM 33.9333 -117.2833 260° West 349 402 15,500 -1,200 Descending Southern California TRACON
03:47PM 33.9333 -117.3833 270° West 350 403 14,300 -1,740 Descending Southern California TRACON
03:48PM 33.9833 -117.5000 297° West 347 399 12,100 -1,920 Descending Southern California TRACON
03:49PM 34.0167 -117.6167 289° West 390 449 10,300 -1,140 Descending Southern California TRACON
03:50PM 34.0000 -117.7000 256° West 281 323 9,900 -960 Descending Southern California TRACON
03:51PM 34.0000 -117.8000 270° West 252 290 8,400 -1,260 Descending Southern California TRACON
03:52PM 33.9833 -117.8833 256° West 252 290 7,400 -1,020 Descending Southern California TRACON
03:53PM 33.9833 -117.9667 270° West 245 282 6,400 -1,080 Descending Southern California TRACON
03:54PM 33.9667 -118.0500 256° West 231 266 5,300 -1,020 Descending Southern California TRACON
03:55PM 33.9667 -118.1167 270° West 207 238 4,400 -900 Descending Southern California TRACON
03:56PM 33.9597 -118.1667 261° West 211 243 3,600 -1,020 Descending Los Angeles Center
03:57PM 33.9525 -118.2428 263° West 197 227 2,400 -1,080 Descending Los Angeles Center
03:58PM 33.9458 -118.3011 262° West 187 215 1,400 -840 Descending Los Angeles Center
03:59PM 33.9417 -118.3472 264° West 160 184 700 -660 Descending Los Angeles Center
04:00PM 33.9372 -118.3956 264° West 144 166 100 -600 Descending Los Angeles Center
04:02PM 33.9333 -118.4000 270° West  Level FlightAware Approximate